createdAt,value
2018-11-29T00:02:18.360Z,11.77
2018-11-29T00:04:45.871Z,11.13
2018-11-29T00:07:13.405Z,12.97
2018-11-29T00:09:40.971Z,12.17
2018-11-29T00:12:08.494Z,11.87
2018-11-29T00:14:36.715Z,12.80
2018-11-29T00:17:04.202Z,11.20
2018-11-29T00:19:31.820Z,11.57
2018-11-29T00:21:59.344Z,11.07
2018-11-29T00:24:26.863Z,10.67
2018-11-29T00:26:54.611Z,10.83
2018-11-29T00:29:22.208Z,10.43
2018-11-29T00:31:49.716Z,10.50
2018-11-29T00:34:17.275Z,11.07
2018-11-29T00:36:44.739Z,9.87
2018-11-29T00:39:12.301Z,9.50
2018-11-29T00:41:39.761Z,9.33
2018-11-29T00:44:08.027Z,10.30
2018-11-29T00:46:35.623Z,8.70
2018-11-29T00:49:03.092Z,9.07
2018-11-29T00:51:30.766Z,8.53
2018-11-29T00:53:58.650Z,8.87
2018-11-29T00:56:26.255Z,8.27
2018-11-29T00:58:53.793Z,8.40
2018-11-29T01:01:21.339Z,8.43
2018-11-29T01:03:49.107Z,9.30
2018-11-29T01:06:17.722Z,8.13
2018-11-29T01:08:46.062Z,8.60
2018-11-29T01:11:13.670Z,8.77
2018-11-29T01:13:41.138Z,8.37
2018-11-29T01:16:08.600Z,8.73
2018-11-29T01:18:36.155Z,9.70
2018-11-29T01:21:03.690Z,8.67
2018-11-29T01:23:31.180Z,9.40
2018-11-29T01:25:58.670Z,10.10
2018-11-29T01:28:26.226Z,10.30
2018-11-29T01:30:53.694Z,9.13
2018-11-29T01:33:21.124Z,8.80
2018-11-29T01:35:48.684Z,8.63
2018-11-29T01:38:16.196Z,8.40
2018-11-29T01:40:44.341Z,8.47
2018-11-29T01:43:11.966Z,9.03
2018-11-29T01:45:39.640Z,8.83
2018-11-29T01:48:07.122Z,8.27
2018-11-29T01:50:34.636Z,9.17
2018-11-29T01:53:02.102Z,9.10
2018-11-29T01:55:29.696Z,8.20
2018-11-29T01:57:57.213Z,8.40
2018-11-29T02:00:24.714Z,9.33
2018-11-29T02:02:52.678Z,9.23
2018-11-29T02:05:24.888Z,9.63
2018-11-29T02:07:52.547Z,9.30
2018-11-29T02:10:26.945Z,10.33
2018-11-29T02:12:54.873Z,10.33
2018-11-29T02:15:22.301Z,10.63
2018-11-29T02:17:49.870Z,8.77
2018-11-29T02:20:18.806Z,9.63
2018-11-29T02:22:46.551Z,9.13
2018-11-29T02:25:14.088Z,10.27
2018-11-29T02:27:41.598Z,9.80
2018-11-29T02:30:11.779Z,10.90
2018-11-29T02:32:39.991Z,10.70
2018-11-29T02:35:07.526Z,9.70
2018-11-29T02:37:34.984Z,11.33
2018-11-29T02:40:02.627Z,10.90
2018-11-29T02:42:30.074Z,10.43
2018-11-29T02:44:57.546Z,10.70
2018-11-29T02:47:25.062Z,11.47
2018-11-29T02:49:52.532Z,12.17
2018-11-29T02:52:20.188Z,12.17
2018-11-29T02:54:47.811Z,11.90
2018-11-29T02:57:15.379Z,11.43
2018-11-29T02:59:42.857Z,12.87
2018-11-29T03:02:10.394Z,13.27
2018-11-29T03:04:37.946Z,13.10
2018-11-29T03:07:05.591Z,14.20
2018-11-29T03:09:33.141Z,13.17
2018-11-29T03:12:00.761Z,13.23
2018-11-29T03:14:28.242Z,13.60
2018-11-29T03:16:56.722Z,12.87
2018-11-29T03:19:24.187Z,13.50
2018-11-29T03:21:51.652Z,12.33
2018-11-29T03:24:19.395Z,11.70
2018-11-29T03:26:46.935Z,12.47
2018-11-29T03:29:14.413Z,13.37
2018-11-29T03:31:42.046Z,13.50
2018-11-29T03:34:09.874Z,14.57
2018-11-29T03:36:37.424Z,13.43
2018-11-29T03:39:06.349Z,14.10
2018-11-29T03:41:33.837Z,12.90
2018-11-29T03:44:01.815Z,13.50
2018-11-29T03:46:30.021Z,12.97
2018-11-29T03:48:57.451Z,13.33
2018-11-29T03:51:29.448Z,13.50
2018-11-29T03:53:56.953Z,13.23
2018-11-29T03:56:24.623Z,12.17
2018-11-29T03:58:52.213Z,12.87
2018-11-29T04:01:19.721Z,13.03
2018-11-29T04:03:47.244Z,13.73
2018-11-29T04:06:14.837Z,13.30
2018-11-29T04:08:42.481Z,13.27
2018-11-29T04:11:09.957Z,13.03
2018-11-29T04:13:37.475Z,12.67
2018-11-29T04:16:04.978Z,13.40
2018-11-29T04:18:32.569Z,12.47
2018-11-29T04:21:00.019Z,13.07
2018-11-29T04:23:27.554Z,13.07
2018-11-29T04:25:55.216Z,11.57
2018-11-29T04:28:22.667Z,12.43
2018-11-29T04:30:50.165Z,11.93
2018-11-29T04:33:17.589Z,12.73
2018-11-29T04:35:45.103Z,11.87
2018-11-29T04:38:12.683Z,12.10
2018-11-29T04:40:40.148Z,11.80
2018-11-29T04:43:07.601Z,10.33
2018-11-29T04:45:43.637Z,10.17
2018-11-29T04:48:11.234Z,11.20
2018-11-29T04:50:38.792Z,9.80
2018-11-29T04:53:06.423Z,9.57
2018-11-29T04:55:34.667Z,8.57
2018-11-29T04:58:02.160Z,8.37
2018-11-29T05:00:29.596Z,8.40
2018-11-29T05:02:57.178Z,8.50
2018-11-29T05:05:24.786Z,7.40
2018-11-29T05:07:52.295Z,6.80
2018-11-29T05:10:19.918Z,6.80
2018-11-29T05:12:47.475Z,5.77
2018-11-29T05:15:15.827Z,5.00
2018-11-29T05:17:43.273Z,5.17
2018-11-29T05:20:10.778Z,5.17
2018-11-29T05:22:38.334Z,4.93
2018-11-29T05:25:07.159Z,5.07
2018-11-29T05:27:34.718Z,5.40
2018-11-29T05:30:02.216Z,4.80
2018-11-29T05:32:29.767Z,5.20
2018-11-29T05:34:57.348Z,4.90
2018-11-29T05:37:24.918Z,5.00
2018-11-29T05:39:52.841Z,4.83
2018-11-29T05:42:20.405Z,5.23
2018-11-29T05:44:48.071Z,4.80
2018-11-29T05:47:15.621Z,4.80
2018-11-29T05:49:43.099Z,5.10
2018-11-29T05:52:10.700Z,5.30
2018-11-29T05:54:38.283Z,4.83
2018-11-29T05:57:06.054Z,5.80
2018-11-29T05:59:37.526Z,5.40
2018-11-29T06:02:05.888Z,6.50
2018-11-29T06:04:37.387Z,6.53
2018-11-29T06:07:05.047Z,6.83
2018-11-29T06:09:32.544Z,7.43
2018-11-29T06:12:00.071Z,7.20
2018-11-29T06:14:28.291Z,6.87
2018-11-29T06:16:55.760Z,6.77
2018-11-29T06:19:23.216Z,7.87
2018-11-29T06:21:50.681Z,5.87
2018-11-29T06:24:18.178Z,6.53
2018-11-29T06:26:45.687Z,6.80
2018-11-29T06:29:13.293Z,6.33
2018-11-29T06:31:41.832Z,6.93
2018-11-29T06:34:09.504Z,6.50
2018-11-29T06:36:37.012Z,6.57
2018-11-29T06:39:06.780Z,6.37
2018-11-29T06:41:35.704Z,5.97
2018-11-29T06:44:03.441Z,5.80
2018-11-29T06:46:30.926Z,6.00
2018-11-29T06:48:58.460Z,5.83
2018-11-29T06:51:25.972Z,5.60
2018-11-29T06:53:59.037Z,5.00
2018-11-29T06:56:26.744Z,5.37
2018-11-29T06:58:54.475Z,5.07
2018-11-29T07:01:21.971Z,5.17
2018-11-29T07:03:49.658Z,4.47
2018-11-29T07:06:17.163Z,4.70
2018-11-29T07:08:44.612Z,4.07
2018-11-29T07:11:12.068Z,4.53
2018-11-29T07:13:39.603Z,3.43
2018-11-29T07:16:07.944Z,3.90
2018-11-29T07:18:36.266Z,4.43
2018-11-29T07:21:09.272Z,3.73
2018-11-29T07:23:41.488Z,4.17
2018-11-29T07:26:09.065Z,3.80
2018-11-29T07:28:36.548Z,3.87
2018-11-29T07:31:04.093Z,3.80
2018-11-29T07:33:32.423Z,3.90
2018-11-29T07:36:00.048Z,3.37
2018-11-29T07:38:28.028Z,3.53
2018-11-29T07:40:55.935Z,3.40
2018-11-29T07:43:23.801Z,3.07
2018-11-29T07:45:51.466Z,4.17
2018-11-29T07:48:19.029Z,3.97
2018-11-29T07:50:46.496Z,4.30
2018-11-29T07:53:13.927Z,4.03
2018-11-29T07:55:41.343Z,4.40
2018-11-29T07:58:08.889Z,4.47
2018-11-29T08:00:36.464Z,3.97
2018-11-29T08:03:04.031Z,4.57
2018-11-29T08:05:31.652Z,4.00
2018-11-29T08:07:59.235Z,4.50
2018-11-29T08:10:26.783Z,4.53
2018-11-29T08:12:54.275Z,5.17
2018-11-29T08:15:21.766Z,4.83
2018-11-29T08:17:49.335Z,4.77
2018-11-29T08:20:17.602Z,4.37
2018-11-29T08:22:45.132Z,5.47
2018-11-29T08:25:12.756Z,5.30
2018-11-29T08:27:40.251Z,4.93
2018-11-29T08:30:14.754Z,5.23
2018-11-29T08:32:42.705Z,5.60
2018-11-29T08:35:10.843Z,5.97
2018-11-29T08:37:38.739Z,5.87
2018-11-29T08:40:08.719Z,5.80
2018-11-29T08:42:36.277Z,5.60
2018-11-29T08:45:03.824Z,6.43
2018-11-29T08:47:31.270Z,6.23
2018-11-29T08:49:58.706Z,6.07
2018-11-29T08:52:26.190Z,6.90
2018-11-29T08:54:53.917Z,6.20
2018-11-29T08:57:21.361Z,6.40
2018-11-29T08:59:48.946Z,6.13
2018-11-29T09:02:16.470Z,6.53
2018-11-29T09:04:44.779Z,6.27
2018-11-29T09:07:12.346Z,7.20
2018-11-29T09:09:39.902Z,6.77
2018-11-29T09:12:07.507Z,6.27
2018-11-29T09:14:35.283Z,6.37
2018-11-29T09:17:02.894Z,6.67
2018-11-29T09:19:31.070Z,6.37
2018-11-29T09:21:58.707Z,4.87
2018-11-29T09:24:26.244Z,4.50
2018-11-29T09:26:53.841Z,4.93
2018-11-29T09:29:21.525Z,4.70
2018-11-29T09:31:49.936Z,5.40
2018-11-29T09:34:17.419Z,5.67
2018-11-29T09:36:44.935Z,5.27
2018-11-29T09:39:12.539Z,4.83
2018-11-29T09:41:43.977Z,5.40
2018-11-29T09:44:11.463Z,4.70
2018-11-29T09:46:39.955Z,5.17
2018-11-29T09:49:07.489Z,5.70
2018-11-29T09:51:35.114Z,5.13
2018-11-29T09:54:02.585Z,5.40
2018-11-29T09:56:30.061Z,4.50
2018-11-29T09:58:57.650Z,5.27
2018-11-29T10:01:25.081Z,5.47
2018-11-29T10:03:52.708Z,4.20
2018-11-29T10:06:20.178Z,4.80
2018-11-29T10:08:48.128Z,5.10
2018-11-29T10:11:15.637Z,4.97
2018-11-29T10:13:46.208Z,5.73
2018-11-29T10:16:10.767Z,5.20
2018-11-29T10:18:38.344Z,5.80
2018-11-29T10:21:06.458Z,5.73
2018-11-29T10:23:34.476Z,6.37
2018-11-29T10:26:02.002Z,6.23
2018-11-29T10:28:51.204Z,6.80
2018-11-29T10:31:22.882Z,7.03
2018-11-29T10:33:51.379Z,6.63
2018-11-29T10:36:18.979Z,6.30
2018-11-29T10:38:46.555Z,7.10
2018-11-29T10:41:14.118Z,6.70
2018-11-29T10:43:42.527Z,6.73
2018-11-29T10:46:10.007Z,6.67
2018-11-29T10:48:37.652Z,6.23
2018-11-29T10:51:05.766Z,7.23
2018-11-29T10:53:36.414Z,6.63
2018-11-29T10:56:01.706Z,6.77
2018-11-29T10:58:29.302Z,7.57
2018-11-29T11:01:02.310Z,7.93
2018-11-29T11:03:29.953Z,7.90
2018-11-29T11:05:57.838Z,8.10
2018-11-29T11:08:29.646Z,7.90
2018-11-29T11:10:57.408Z,7.27
2018-11-29T11:13:24.986Z,7.27
2018-11-29T11:15:52.494Z,7.53
2018-11-29T11:18:20.059Z,6.67
2018-11-29T11:20:47.656Z,8.57
2018-11-29T11:23:15.242Z,6.80
2018-11-29T11:25:43.682Z,7.93
2018-11-29T11:28:11.242Z,6.60
2018-11-29T11:30:39.534Z,6.63
2018-11-29T11:33:07.000Z,7.20
2018-11-29T11:35:34.845Z,6.30
2018-11-29T11:38:02.531Z,6.60
2018-11-29T11:40:30.020Z,6.40
2018-11-29T11:42:57.595Z,6.57
2018-11-29T11:45:25.100Z,6.73
2018-11-29T11:47:53.538Z,6.70
2018-11-29T11:50:22.549Z,6.50
2018-11-29T11:52:50.300Z,6.23
2018-11-29T11:55:19.219Z,6.33
2018-11-29T11:57:45.768Z,6.00
2018-11-29T12:00:15.928Z,5.63
2018-11-29T12:02:43.744Z,5.40
2018-11-29T12:05:11.318Z,5.43
2018-11-29T12:07:38.943Z,5.03
2018-11-29T12:10:07.672Z,5.10
2018-11-29T12:12:35.231Z,5.17
2018-11-29T12:15:02.691Z,4.93
2018-11-29T12:17:30.289Z,4.30
2018-11-29T12:19:57.887Z,4.27
2018-11-29T12:22:25.448Z,4.00
2018-11-29T12:24:52.939Z,4.60
2018-11-29T12:27:20.415Z,3.27
2018-11-29T12:29:48.067Z,3.30
2018-11-29T12:32:15.809Z,3.20
2018-11-29T12:34:43.410Z,3.00
2018-11-29T12:37:10.999Z,3.03
2018-11-29T12:39:38.579Z,2.33
2018-11-29T12:42:06.723Z,3.03
2018-11-29T12:44:34.311Z,2.50
2018-11-29T12:47:02.067Z,3.30
2018-11-29T12:49:29.513Z,2.43
2018-11-29T12:51:57.058Z,3.27
2018-11-29T12:54:24.638Z,2.80
2018-11-29T12:56:52.130Z,2.90
2018-11-29T12:59:19.713Z,2.90
2018-11-29T13:01:47.274Z,3.50
2018-11-29T13:04:14.922Z,2.80
2018-11-29T13:06:42.703Z,3.07
2018-11-29T13:09:10.622Z,2.50
2018-11-29T13:11:38.359Z,2.27
2018-11-29T13:14:06.283Z,2.83
2018-11-29T13:16:33.764Z,2.30
2018-11-29T13:19:02.444Z,2.53
2018-11-29T13:21:29.952Z,3.03
2018-11-29T13:24:00.130Z,2.60
2018-11-29T13:26:25.302Z,2.40
2018-11-29T13:28:52.912Z,2.33
2018-11-29T13:31:20.994Z,1.90
2018-11-29T13:33:48.848Z,2.53
2018-11-29T13:36:16.216Z,2.60
2018-11-29T13:38:44.529Z,2.30
2018-11-29T13:41:12.050Z,2.30
2018-11-29T13:43:39.942Z,2.37
2018-11-29T13:46:07.507Z,2.27
2018-11-29T13:48:35.059Z,2.43
2018-11-29T13:51:03.410Z,2.30
2018-11-29T13:53:31.157Z,2.33
2018-11-29T13:55:58.709Z,2.20
2018-11-29T13:58:26.275Z,2.17
2018-11-29T14:00:53.908Z,2.00
2018-11-29T14:03:21.520Z,2.27
2018-11-29T14:05:48.993Z,2.10
2018-11-29T14:08:16.576Z,2.17
2018-11-29T14:10:44.177Z,2.40
2018-11-29T14:13:11.817Z,2.20
2018-11-29T14:15:39.366Z,1.77
2018-11-29T14:18:07.241Z,2.03
2018-11-29T14:20:35.540Z,1.90
2018-11-29T14:23:03.862Z,1.67
2018-11-29T14:25:31.502Z,1.77
2018-11-29T14:27:59.086Z,2.10
2018-11-29T14:30:27.144Z,1.60
2018-11-29T14:32:56.093Z,1.80
2018-11-29T14:35:23.633Z,1.63
2018-11-29T14:37:51.201Z,2.40
2018-11-29T14:40:20.862Z,2.00
2018-11-29T14:42:48.397Z,1.70
2018-11-29T14:45:17.510Z,1.87
2018-11-29T14:47:44.983Z,1.93
2018-11-29T14:50:16.470Z,1.60
2018-11-29T14:52:44.186Z,1.97
2018-11-29T14:55:11.786Z,1.90
2018-11-29T14:57:39.388Z,1.90
2018-11-29T15:00:09.639Z,1.67
2018-11-29T15:02:37.157Z,1.93
2018-11-29T15:05:07.871Z,1.70
2018-11-29T15:07:34.161Z,1.90
2018-11-29T15:10:01.770Z,2.03
2018-11-29T15:12:29.412Z,1.90
2018-11-29T15:14:56.906Z,1.70
2018-11-29T15:17:24.479Z,2.20
2018-11-29T15:19:52.101Z,2.23
2018-11-29T15:22:19.626Z,2.03
2018-11-29T15:24:47.109Z,2.10
2018-11-29T15:27:14.588Z,2.10
2018-11-29T15:29:42.157Z,2.20
2018-11-29T15:32:09.694Z,2.00
2018-11-29T15:34:37.242Z,1.80
2018-11-29T15:37:04.772Z,2.27
2018-11-29T15:39:32.312Z,1.90
2018-11-29T15:41:59.788Z,2.00
2018-11-29T15:44:28.116Z,2.37
2018-11-29T15:46:55.643Z,2.23
2018-11-29T15:49:23.128Z,2.20
2018-11-29T15:51:50.771Z,1.67
2018-11-29T15:54:18.148Z,1.93
2018-11-29T15:56:45.705Z,2.40
2018-11-29T15:59:13.296Z,2.23
2018-11-29T16:01:40.869Z,1.70
2018-11-29T16:04:08.405Z,2.20
2018-11-29T16:06:35.934Z,2.17
2018-11-29T16:09:04.955Z,1.80
2018-11-29T16:11:32.570Z,3.53
2018-11-29T16:14:00.078Z,2.37
2018-11-29T16:16:27.937Z,2.47
2018-11-29T16:18:55.584Z,2.03
2018-11-29T16:21:23.246Z,2.13
2018-11-29T16:23:50.928Z,2.10
2018-11-29T16:26:18.650Z,2.00
2018-11-29T16:28:46.452Z,2.17
2018-11-29T16:31:14.111Z,1.80
2018-11-29T16:33:42.044Z,2.40
2018-11-29T16:36:11.151Z,2.13
2018-11-29T16:38:38.850Z,2.40
2018-11-29T16:41:06.499Z,2.10
2018-11-29T16:43:34.925Z,1.83
2018-11-29T16:46:02.380Z,1.73
2018-11-29T16:48:30.016Z,2.00
2018-11-29T16:50:57.721Z,2.17
2018-11-29T16:53:25.261Z,2.20
2018-11-29T16:55:53.070Z,1.97
2018-11-29T16:58:22.399Z,2.20
2018-11-29T17:00:49.965Z,2.33
2018-11-29T17:03:17.446Z,2.17
2018-11-29T17:05:45.365Z,2.00
2018-11-29T17:08:13.048Z,2.47
2018-11-29T17:10:40.516Z,2.47
2018-11-29T17:13:08.899Z,2.30
2018-11-29T17:15:36.437Z,2.40
2018-11-29T17:18:04.179Z,2.47
2018-11-29T17:20:32.526Z,2.37
2018-11-29T17:23:00.148Z,2.40
2018-11-29T17:25:27.631Z,2.53
2018-11-29T17:27:56.734Z,2.27
2018-11-29T17:30:24.703Z,2.30
2018-11-29T17:32:52.782Z,2.33
2018-11-29T17:35:20.579Z,2.67
2018-11-29T17:37:48.487Z,2.50
2018-11-29T17:40:17.034Z,2.80
2018-11-29T17:42:44.584Z,2.40
2018-11-29T17:45:14.139Z,2.43
2018-11-29T17:47:42.661Z,2.50
2018-11-29T17:50:12.390Z,2.90
2018-11-29T17:52:39.878Z,2.60
2018-11-29T17:55:07.380Z,2.97
2018-11-29T17:57:34.896Z,2.93
2018-11-29T18:00:02.375Z,2.87
2018-11-29T18:02:29.804Z,2.43
2018-11-29T18:04:57.399Z,3.13
2018-11-29T18:07:24.966Z,2.47
2018-11-29T18:09:52.533Z,2.60
2018-11-29T18:12:20.140Z,2.80
2018-11-29T18:14:47.775Z,3.00
2018-11-29T18:17:15.423Z,2.97
2018-11-29T18:19:43.178Z,3.03
2018-11-29T18:22:10.935Z,2.90
2018-11-29T18:24:38.408Z,2.80
2018-11-29T18:27:05.994Z,3.50
2018-11-29T18:29:33.470Z,2.80
2018-11-29T18:32:01.048Z,3.30
2018-11-29T18:34:28.631Z,2.87
2018-11-29T18:36:56.331Z,2.87
2018-11-29T18:39:24.008Z,2.90
2018-11-29T18:41:52.736Z,3.27
2018-11-29T18:44:20.302Z,2.90
2018-11-29T18:46:49.087Z,2.97
2018-11-29T18:49:16.582Z,2.83
2018-11-29T18:51:44.124Z,3.00
2018-11-29T18:54:12.317Z,3.20
2018-11-29T18:56:39.863Z,3.53
2018-11-29T18:59:07.378Z,3.53
2018-11-29T19:01:34.876Z,3.13
2018-11-29T19:04:02.423Z,3.07
2018-11-29T19:06:33.293Z,3.43
2018-11-29T19:09:01.201Z,3.57
2018-11-29T19:11:28.798Z,3.43
2018-11-29T19:13:56.340Z,3.30
2018-11-29T19:16:23.899Z,3.23
2018-11-29T19:18:51.802Z,3.60
2018-11-29T19:21:19.496Z,3.67
2018-11-29T19:23:47.125Z,2.73
2018-11-29T19:26:14.805Z,3.30
2018-11-29T19:28:42.484Z,3.23
2018-11-29T19:31:10.111Z,3.53
2018-11-29T19:33:37.898Z,3.20
2018-11-29T19:36:05.683Z,3.33
2018-11-29T19:38:33.266Z,3.40
2018-11-29T19:41:00.890Z,3.13
2018-11-29T19:43:28.513Z,3.50
2018-11-29T19:45:56.042Z,3.20
2018-11-29T19:48:23.676Z,3.73
2018-11-29T19:50:51.479Z,3.20
2018-11-29T19:53:26.449Z,3.70
2018-11-29T19:55:55.464Z,3.27
2018-11-29T19:58:23.076Z,3.60
2018-11-29T20:00:51.406Z,3.67
2018-11-29T20:03:18.892Z,3.60
2018-11-29T20:05:46.572Z,3.17
2018-11-29T20:08:14.915Z,3.47
2018-11-29T20:10:43.124Z,3.70
2018-11-29T20:13:11.337Z,3.73
2018-11-29T20:15:40.856Z,3.40
2018-11-29T20:18:09.189Z,3.77
2018-11-29T20:20:37.096Z,3.40
2018-11-29T20:23:05.103Z,3.23
2018-11-29T20:25:32.601Z,3.37
2018-11-29T20:28:00.125Z,3.47
2018-11-29T20:30:27.654Z,3.70
2018-11-29T20:32:55.341Z,3.40
2018-11-29T20:35:24.073Z,3.47
2018-11-29T20:37:52.355Z,3.20
2018-11-29T20:40:21.483Z,3.37
2018-11-29T20:42:49.348Z,3.13
2018-11-29T20:45:18.532Z,3.40
2018-11-29T20:47:47.033Z,3.63
2018-11-29T20:50:15.518Z,3.50
2018-11-29T20:52:43.212Z,3.73
2018-11-29T20:55:11.673Z,3.43
2018-11-29T20:57:39.113Z,3.43
2018-11-29T21:00:09.035Z,3.93
2018-11-29T21:02:36.602Z,3.77
2018-11-29T21:05:04.219Z,3.53
2018-11-29T21:07:31.813Z,3.67
2018-11-29T21:10:03.010Z,3.87
2018-11-29T21:12:27.370Z,3.57
2018-11-29T21:14:55.143Z,3.87
2018-11-29T21:17:22.981Z,4.13
2018-11-29T21:19:50.490Z,3.80
2018-11-29T21:22:18.100Z,3.67
2018-11-29T21:24:45.638Z,3.33
2018-11-29T21:27:13.196Z,3.47
2018-11-29T21:29:40.878Z,4.57
2018-11-29T21:32:08.416Z,3.57
2018-11-29T21:34:36.410Z,3.57
2018-11-29T21:37:04.237Z,3.77
2018-11-29T21:39:32.613Z,3.63
2018-11-29T21:42:00.137Z,3.37
2018-11-29T21:44:28.026Z,3.80
2018-11-29T21:46:55.547Z,3.53
2018-11-29T21:49:23.265Z,3.83
2018-11-29T21:51:55.393Z,3.60
2018-11-29T21:54:22.892Z,3.67
2018-11-29T21:56:50.655Z,3.50
2018-11-29T21:59:18.843Z,3.37
2018-11-29T22:01:46.696Z,3.27
2018-11-29T22:04:14.373Z,3.60
2018-11-29T22:06:41.995Z,3.60
2018-11-29T22:09:09.643Z,3.60
2018-11-29T22:11:37.651Z,3.70
2018-11-29T22:14:05.330Z,3.70
2018-11-29T22:16:32.985Z,3.50
2018-11-29T22:19:01.278Z,3.70
2018-11-29T22:21:28.978Z,3.60
2018-11-29T22:23:56.624Z,3.40
2018-11-29T22:26:24.146Z,3.67
2018-11-29T22:28:51.639Z,3.90
2018-11-29T22:31:19.149Z,3.13
2018-11-29T22:33:47.937Z,3.23
2018-11-29T22:36:15.601Z,4.10
2018-11-29T22:38:44.486Z,3.70
2018-11-29T22:41:11.685Z,3.50
2018-11-29T22:43:39.216Z,3.23
2018-11-29T22:46:06.938Z,4.00
2018-11-29T22:48:35.838Z,3.20
2018-11-29T22:51:03.595Z,3.67
2018-11-29T22:53:31.333Z,4.40
2018-11-29T22:55:59.453Z,3.70
2018-11-29T22:58:30.072Z,3.47
2018-11-29T23:00:58.540Z,3.60
2018-11-29T23:03:26.194Z,3.77
2018-11-29T23:05:53.877Z,3.60
2018-11-29T23:08:21.453Z,3.60
2018-11-29T23:10:49.064Z,3.80
2018-11-29T23:13:16.708Z,3.07
2018-11-29T23:15:48.491Z,3.53
2018-11-29T23:18:16.018Z,4.00
2018-11-29T23:20:43.719Z,3.30
2018-11-29T23:23:11.300Z,3.47
2018-11-29T23:25:39.363Z,3.30
2018-11-29T23:28:07.312Z,3.30
2018-11-29T23:30:35.274Z,3.73
2018-11-29T23:33:07.182Z,3.73
2018-11-29T23:35:35.848Z,3.83
2018-11-29T23:38:04.112Z,3.43
2018-11-29T23:40:32.081Z,3.30
2018-11-29T23:42:59.677Z,3.50
2018-11-29T23:45:27.226Z,4.33
2018-11-29T23:47:54.873Z,3.87
2018-11-29T23:50:22.495Z,3.73
2018-11-29T23:52:50.150Z,3.70
2018-11-29T23:55:19.455Z,3.77
2018-11-29T23:57:48.345Z,3.57
